Time;durP1;ratioP1;P1;durP2;ratioP2;P2;SDS_P1;SDS_P2;PMS_P1;PMS_P2;Temp;Humidity;BMP_temperature;BMP_pressure;BME280_temperature;BME280_humidity;BME280_pressure;Samples;Min_cycle;Max_cycle;Signal;HPM_P1;HPM_P2
2023/02/19 00:02:11;;;;;;;;;;;11.30;83.50;;;;;;5029196;28;20049;-82
2023/02/19 00:04:37;;;;;;;;;;;11.30;83.60;;;;;;5005774;28;20368;-82
2023/02/19 00:07:02;;;;;;;;;;;11.20;83.60;;;;;;5003818;28;19913;-82
2023/02/19 00:09:28;;;;;;;;;;;11.20;83.50;;;;;;5023066;28;19914;-83
2023/02/19 00:11:53;;;;;;;;;;;11.30;83.50;;;;;;5015843;28;19917;-83
2023/02/19 00:14:20;;;;;;;;;;;11.30;83.60;;;;;;5002395;28;19913;-83
2023/02/19 00:16:46;;;;;;;;;;;11.20;83.80;;;;;;4984821;28;19977;-83
2023/02/19 00:19:12;;;;;;;;;;;11.30;83.90;;;;;;4984717;28;19913;-82
2023/02/19 00:21:38;;;;;;;;;;;11.30;83.70;;;;;;4993154;28;19948;-83
2023/02/19 00:24:04;;;;;;;;;;;11.30;83.70;;;;;;5021598;28;19910;-83
2023/02/19 00:26:30;;;;;;;;;;;11.20;84.10;;;;;;5003846;28;20004;-82
2023/02/19 00:28:57;;;;;;;;;;;11.30;83.90;;;;;;5021247;28;19939;-82
2023/02/19 00:31:26;;;;;;;;;;;11.30;84.10;;;;;;5021522;28;19913;-83
2023/02/19 00:33:53;;;;;;;;;;;11.30;84.30;;;;;;5020881;28;19989;-82
2023/02/19 00:36:19;;;;;;;;;;;11.20;84.60;;;;;;5007647;28;19909;-82
2023/02/19 00:38:45;;;;;;;;;;;11.20;84.50;;;;;;5015544;28;19910;-83
2023/02/19 00:41:20;;;;;;;;;;;11.20;84.70;;;;;;5018873;28;20033;-82
2023/02/19 00:43:46;;;;;;;;;;;11.10;84.80;;;;;;4993427;28;19918;-82
2023/02/19 00:46:12;;;;;;;;;;;11.10;84.80;;;;;;5000836;28;19913;-84
2023/02/19 00:48:38;;;;;;;;;;;11.20;84.60;;;;;;5001772;28;19925;-83
2023/02/19 00:51:03;;;;;;;;;;;11.10;84.80;;;;;;5014743;28;19909;-83
2023/02/19 00:53:29;;;;;;;;;;;11.20;84.60;;;;;;5023265;28;20459;-83
2023/02/19 00:55:55;;;;;;;;;;;11.10;84.70;;;;;;5019468;28;19945;-82
2023/02/19 00:58:20;;;;;;;;;;;11.10;84.80;;;;;;5019070;28;19909;-82
2023/02/19 01:00:46;;;;;;;;;;;11.10;84.80;;;;;;5018614;28;19910;-83
2023/02/19 01:03:12;;;;;;;;;;;11.20;84.70;;;;;;5021279;28;19976;-82
2023/02/19 01:05:37;;;;;;;;;;;11.20;84.50;;;;;;5001994;28;19963;-82
2023/02/19 01:08:03;;;;;;;;;;;11.20;84.70;;;;;;5019957;28;19937;-84
2023/02/19 01:10:28;;;;;;;;;;;11.20;84.70;;;;;;5017787;28;20026;-83
2023/02/19 01:12:54;;;;;;;;;;;11.10;85.10;;;;;;5017915;28;19916;-83
2023/02/19 01:15:19;;;;;;;;;;;11.10;85.10;;;;;;5001085;28;19910;-83
2023/02/19 01:17:45;;;;;;;;;;;11.10;85.20;;;;;;5019649;28;19924;-82
2023/02/19 01:20:10;;;;;;;;;;;11.10;85.40;;;;;;5019425;28;19916;-82
2023/02/19 01:22:36;;;;;;;;;;;11.10;85.60;;;;;;5025023;28;19913;-83
2023/02/19 01:25:02;;;;;;;;;;;11.10;85.70;;;;;;5029215;28;19917;-80
2023/02/19 01:27:27;;;;;;;;;;;11.10;85.90;;;;;;5030508;28;19952;-82
2023/02/19 01:29:53;;;;;;;;;;;11.10;86.00;;;;;;5031238;28;19921;-83
2023/02/19 01:32:18;;;;;;;;;;;11.10;85.80;;;;;;5002078;28;19915;-83
2023/02/19 01:34:44;;;;;;;;;;;11.10;86.00;;;;;;5010733;28;19986;-82
2023/02/19 01:37:10;;;;;;;;;;;11.10;86.10;;;;;;4999331;28;20281;-82
2023/02/19 01:39:37;;;;;;;;;;;11.10;85.80;;;;;;4999460;28;19973;-83
2023/02/19 01:42:03;;;;;;;;;;;11.10;85.70;;;;;;4981753;28;19962;-82
2023/02/19 01:44:29;;;;;;;;;;;11.20;85.70;;;;;;4981112;28;19933;-82
2023/02/19 01:46:57;;;;;;;;;;;11.10;85.60;;;;;;5005503;28;20052;-81
2023/02/19 01:49:27;;;;;;;;;;;11.10;85.60;;;;;;5008382;28;20502;-82
2023/02/19 01:51:56;;;;;;;;;;;11.10;85.80;;;;;;5001681;28;20398;-83
2023/02/19 01:54:23;;;;;;;;;;;11.10;86.00;;;;;;5023268;28;19963;-83
2023/02/19 01:56:48;;;;;;;;;;;11.00;86.10;;;;;;5019269;28;19996;-83
2023/02/19 01:59:15;;;;;;;;;;;11.00;85.90;;;;;;5018668;28;19940;-83
2023/02/19 02:01:40;;;;;;;;;;;11.10;85.80;;;;;;5018905;28;20268;-82
2023/02/19 02:04:09;;;;;;;;;;;11.10;85.70;;;;;;5000593;28;19937;-81
2023/02/19 02:06:40;;;;;;;;;;;11.10;85.80;;;;;;5017357;28;19913;-82
2023/02/19 02:11:50;;;;;;;;;;;11.00;85.90;;;;;;5018873;28;20379;-82
2023/02/19 02:14:17;;;;;;;;;;;11.10;87.30;;;;;;4999550;28;19914;-81
2023/02/19 02:16:52;;;;;;;;;;;11.00;89.00;;;;;;4988799;28;19974;-82
2023/02/19 02:19:40;;;;;;;;;;;10.80;90.10;;;;;;4981101;28;19909;-81
2023/02/19 02:22:06;;;;;;;;;;;10.70;90.60;;;;;;5013990;28;19909;-83
2023/02/19 02:24:50;;;;;;;;;;;10.60;91.60;;;;;;5015965;28;19921;-83
2023/02/19 02:27:35;;;;;;;;;;;10.40;92.50;;;;;;5010911;28;19909;-83
2023/02/19 02:30:16;;;;;;;;;;;10.30;93.30;;;;;;5001625;28;20315;-81
2023/02/19 02:32:52;;;;;;;;;;;10.10;94.10;;;;;;4988113;28;19964;-82
2023/02/19 02:35:21;;;;;;;;;;;10.00;94.80;;;;;;4997648;28;19913;-82
2023/02/19 02:37:47;;;;;;;;;;;9.90;95.80;;;;;;5015591;28;19936;-81
2023/02/19 02:40:12;;;;;;;;;;;9.80;96.70;;;;;;5005950;28;19996;-82
2023/02/19 02:42:39;;;;;;;;;;;9.70;97.20;;;;;;4995169;28;19929;-82
2023/02/19 02:45:36;;;;;;;;;;;9.70;97.80;;;;;;4999004;28;19945;-81
2023/02/19 02:48:05;;;;;;;;;;;9.60;98.30;;;;;;5021752;28;19920;-81
2023/02/19 02:50:46;;;;;;;;;;;9.60;98.50;;;;;;5018846;28;19921;-82
2023/02/19 02:56:02;;;;;;;;;;;9.50;99.90;;;;;;5030635;28;19936;-81
2023/02/19 02:58:28;;;;;;;;;;;9.40;99.90;;;;;;5011598;28;19979;-80
2023/02/19 03:03:42;;;;;;;;;;;9.20;99.90;;;;;;5057904;28;19935;-83
2023/02/19 03:06:10;;;;;;;;;;;9.10;99.90;;;;;;5011120;28;20310;-83
2023/02/19 03:08:44;;;;;;;;;;;9.00;99.90;;;;;;5003573;28;19914;-82
2023/02/19 03:19:49;;;;;;;;;;;8.80;99.90;;;;;;5022029;28;19973;-82
2023/02/19 03:22:23;;;;;;;;;;;8.70;99.90;;;;;;5021284;28;19921;-82
2023/02/19 03:27:37;;;;;;;;;;;8.70;99.90;;;;;;5019865;28;19920;-83
2023/02/19 03:30:15;;;;;;;;;;;8.70;99.90;;;;;;5003037;28;20340;-82
2023/02/19 03:32:52;;;;;;;;;;;8.70;99.90;;;;;;5021492;28;19918;-82
2023/02/19 03:35:19;;;;;;;;;;;8.70;99.90;;;;;;5001016;28;20028;-81
2023/02/19 03:37:45;;;;;;;;;;;8.70;99.90;;;;;;5003025;28;19913;-81
2023/02/19 03:40:11;;;;;;;;;;;8.70;99.90;;;;;;5013363;28;19902;-82
2023/02/19 03:42:42;;;;;;;;;;;8.70;99.90;;;;;;5036917;28;19923;-80
2023/02/19 03:45:27;;;;;;;;;;;8.60;99.90;;;;;;5003371;28;19914;-82
2023/02/19 03:48:06;;;;;;;;;;;8.50;99.90;;;;;;5010771;28;19914;-80
2023/02/19 03:50:48;;;;;;;;;;;8.50;99.90;;;;;;5016719;28;19918;-81
2023/02/19 03:53:14;;;;;;;;;;;8.50;99.90;;;;;;5030445;28;19898;-82
2023/02/19 03:55:51;;;;;;;;;;;8.40;99.90;;;;;;5011719;28;20292;-81
2023/02/19 03:58:17;;;;;;;;;;;8.40;99.90;;;;;;5018559;28;19921;-84
2023/02/19 04:00:45;;;;;;;;;;;8.40;99.90;;;;;;5035207;28;20438;-82
2023/02/19 04:03:11;;;;;;;;;;;8.40;99.90;;;;;;5008049;28;19956;-82
2023/02/19 04:05:41;;;;;;;;;;;8.30;99.90;;;;;;5029628;28;19905;-81
2023/02/19 04:08:10;;;;;;;;;;;8.30;99.90;;;;;;5014056;28;19940;-82
2023/02/19 04:10:37;;;;;;;;;;;8.30;99.90;;;;;;5032479;28;19916;-82
2023/02/19 04:13:05;;;;;;;;;;;8.30;99.90;;;;;;5012581;28;19941;-83
2023/02/19 04:15:32;;;;;;;;;;;8.30;99.90;;;;;;5007335;28;19916;-81
2023/02/19 04:18:10;;;;;;;;;;;8.30;99.90;;;;;;4994858;28;19932;-81
2023/02/19 04:20:38;;;;;;;;;;;8.30;99.90;;;;;;5007744;28;20063;-82
2023/02/19 04:23:04;;;;;;;;;;;8.30;99.90;;;;;;4995253;28;19909;-82
2023/02/19 04:25:30;;;;;;;;;;;8.30;99.90;;;;;;5020535;28;20360;-81
2023/02/19 04:27:58;;;;;;;;;;;8.20;99.90;;;;;;5001385;28;19913;-82
2023/02/19 04:30:24;;;;;;;;;;;8.30;99.90;;;;;;5018380;28;19914;-80
2023/02/19 04:32:49;;;;;;;;;;;8.30;99.90;;;;;;5034915;28;20035;-82
2023/02/19 04:35:15;;;;;;;;;;;8.30;99.90;;;;;;5043027;28;19917;-83
2023/02/19 04:37:53;;;;;;;;;;;8.30;99.90;;;;;;5032734;28;19933;-83
2023/02/19 04:40:22;;;;;;;;;;;8.30;99.90;;;;;;5030328;28;20474;-84
2023/02/19 04:43:03;;;;;;;;;;;8.30;99.90;;;;;;5001724;28;19917;-85
2023/02/19 04:45:31;;;;;;;;;;;8.30;99.90;;;;;;5001437;28;19921;-84
2023/02/19 04:48:16;;;;;;;;;;;;;;;;;;;;;
2023/02/19 04:50:51;;;;;;;;;;;8.40;99.90;;;;;;5008460;28;19996;-83
2023/02/19 04:53:16;;;;;;;;;;;8.40;99.90;;;;;;4997501;28;19911;-84
2023/02/19 04:55:46;;;;;;;;;;;8.40;99.90;;;;;;5034013;28;19925;-84
2023/02/19 04:58:24;;;;;;;;;;;8.50;99.90;;;;;;5019389;28;19917;-83
2023/02/19 05:01:15;;;;;;;;;;;8.50;99.90;;;;;;5018733;28;19921;-83
2023/02/19 05:04:10;;;;;;;;;;;8.50;99.90;;;;;;5035821;28;19921;-85
2023/02/19 05:09:56;;;;;;;;;;;8.50;99.90;;;;;;4982453;28;19913;-83
2023/02/19 05:12:21;;;;;;;;;;;8.50;99.90;;;;;;5034711;28;19977;-84
2023/02/19 05:14:47;;;;;;;;;;;8.50;99.90;;;;;;5035902;28;19948;-84
2023/02/19 05:17:12;;;;;;;;;;;8.60;99.90;;;;;;5035719;28;20004;-84
2023/02/19 05:19:38;;;;;;;;;;;8.60;99.90;;;;;;5023452;28;20004;-85
2023/02/19 05:22:03;;;;;;;;;;;8.60;99.90;;;;;;4996801;28;19909;-85
2023/02/19 05:24:30;;;;;;;;;;;8.70;99.90;;;;;;5023584;28;19925;-86
2023/02/19 05:26:55;;;;;;;;;;;8.70;99.90;;;;;;5022737;28;20237;-85
2023/02/19 05:29:21;;;;;;;;;;;8.70;99.90;;;;;;5018811;28;19924;-85
2023/02/19 05:31:47;;;;;;;;;;;8.70;99.90;;;;;;5018738;28;19933;-86
2023/02/19 05:34:13;;;;;;;;;;;8.80;99.90;;;;;;5018632;28;19921;-85
2023/02/19 05:36:39;;;;;;;;;;;8.80;99.90;;;;;;5018802;28;20000;-86
2023/02/19 05:39:06;;;;;;;;;;;8.80;99.90;;;;;;5017016;28;19968;-87
2023/02/19 05:41:31;;;;;;;;;;;8.80;99.90;;;;;;4997924;28;19956;-86
2023/02/19 05:43:57;;;;;;;;;;;8.80;99.90;;;;;;4998658;28;19910;-85
2023/02/19 05:46:28;;;;;;;;;;;8.90;99.90;;;;;;4999909;28;20364;-85
2023/02/19 05:48:53;;;;;;;;;;;8.90;99.90;;;;;;4981588;28;19924;-85
2023/02/19 05:51:20;;;;;;;;;;;8.90;99.90;;;;;;4990949;28;19969;-86
2023/02/19 05:53:46;;;;;;;;;;;8.90;99.90;;;;;;5017023;28;19910;-86
2023/02/19 05:56:23;;;;;;;;;;;8.90;99.90;;;;;;5018299;28;20260;-85
2023/02/19 05:58:49;;;;;;;;;;;8.90;99.90;;;;;;5001295;28;19916;-85
2023/02/19 06:01:21;;;;;;;;;;;8.90;99.90;;;;;;5000660;28;21230;-84
2023/02/19 06:03:47;;;;;;;;;;;8.90;99.90;;;;;;5000998;28;20018;-84
2023/02/19 06:06:12;;;;;;;;;;;9.00;99.90;;;;;;5018268;28;20000;-84
2023/02/19 06:08:38;;;;;;;;;;;9.00;99.90;;;;;;5018502;28;19914;-84
2023/02/19 06:11:04;;;;;;;;;;;9.00;99.90;;;;;;5021052;28;19913;-83
2023/02/19 06:13:29;;;;;;;;;;;9.00;99.90;;;;;;5009982;28;19916;-84
2023/02/19 06:15:55;;;;;;;;;;;9.10;99.90;;;;;;5031311;28;19897;-84
2023/02/19 06:18:21;;;;;;;;;;;9.10;99.90;;;;;;5016208;28;19986;-84
2023/02/19 06:20:46;;;;;;;;;;;9.10;99.90;;;;;;5016508;28;19906;-83
2023/02/19 06:23:12;;;;;;;;;;;9.10;99.90;;;;;;5016051;28;19966;-85
2023/02/19 06:25:38;;;;;;;;;;;9.10;99.90;;;;;;5015714;28;19917;-86
2023/02/19 06:28:04;;;;;;;;;;;9.10;99.90;;;;;;4998425;28;19902;-84
2023/02/19 06:30:29;;;;;;;;;;;9.10;99.90;;;;;;5004742;28;19920;-86
2023/02/19 06:32:55;;;;;;;;;;;9.10;99.90;;;;;;4998854;28;20329;-84
2023/02/19 06:35:20;;;;;;;;;;;9.20;99.90;;;;;;5001542;28;19925;-85
2023/02/19 06:37:46;;;;;;;;;;;9.10;99.90;;;;;;4999703;28;19902;-84
2023/02/19 06:40:33;;;;;;;;;;;9.20;99.90;;;;;;4987545;28;19982;-84
2023/02/19 06:42:59;;;;;;;;;;;9.20;99.90;;;;;;5001034;28;19917;-86
2023/02/19 06:45:25;;;;;;;;;;;9.20;99.90;;;;;;4984548;28;19918;-83
2023/02/19 06:47:53;;;;;;;;;;;9.20;99.90;;;;;;5001694;28;20020;-83
2023/02/19 06:50:19;;;;;;;;;;;9.30;99.90;;;;;;5019765;28;19945;-83
2023/02/19 06:52:45;;;;;;;;;;;9.30;99.90;;;;;;5011778;28;19980;-84
2023/02/19 06:55:10;;;;;;;;;;;9.30;99.90;;;;;;5028583;28;19898;-84
2023/02/19 06:57:36;;;;;;;;;;;9.40;99.90;;;;;;5022619;28;20388;-84
2023/02/19 07:00:03;;;;;;;;;;;9.40;99.90;;;;;;5032407;28;19921;-84
2023/02/19 07:02:29;;;;;;;;;;;9.50;99.90;;;;;;5009142;28;20342;-84
2023/02/19 07:04:55;;;;;;;;;;;9.60;99.90;;;;;;5004857;28;19916;-83
2023/02/19 07:07:23;;;;;;;;;;;9.60;99.90;;;;;;5034031;28;20451;-84
2023/02/19 07:09:49;;;;;;;;;;;9.70;99.90;;;;;;5020103;28;19913;-83
2023/02/19 07:12:15;;;;;;;;;;;9.80;99.80;;;;;;5019480;28;19919;-84
2023/02/19 07:14:40;;;;;;;;;;;9.90;99.20;;;;;;5018964;28;19959;-83
2023/02/19 07:17:06;;;;;;;;;;;9.90;99.10;;;;;;5004151;28;19932;-82
2023/02/19 07:19:32;;;;;;;;;;;9.90;99.10;;;;;;5020939;28;19918;-83
2023/02/19 07:22:00;;;;;;;;;;;9.90;99.10;;;;;;5005692;28;19916;-83
2023/02/19 07:24:29;;;;;;;;;;;9.90;99.10;;;;;;5021179;28;19980;-84
2023/02/19 07:26:55;;;;;;;;;;;9.90;99.10;;;;;;5004758;28;19921;-85
2023/02/19 07:29:20;;;;;;;;;;;9.90;98.90;;;;;;5005807;28;19918;-84
2023/02/19 07:31:46;;;;;;;;;;;9.90;99.10;;;;;;5022290;28;19909;-83
2023/02/19 07:34:12;;;;;;;;;;;9.90;99.40;;;;;;5024972;28;19963;-81
2023/02/19 07:36:37;;;;;;;;;;;9.90;99.40;;;;;;5026410;28;19909;-80
2023/02/19 07:39:06;;;;;;;;;;;9.90;99.40;;;;;;5015510;28;19914;-81
2023/02/19 07:41:31;;;;;;;;;;;9.90;99.70;;;;;;5010772;28;20142;-82
2023/02/19 07:43:57;;;;;;;;;;;10.00;99.20;;;;;;5023123;28;19921;-82
2023/02/19 07:46:23;;;;;;;;;;;10.10;99.30;;;;;;5031493;28;20250;-82
2023/02/19 07:48:49;;;;;;;;;;;10.10;99.30;;;;;;5024285;28;19912;-82
2023/02/19 07:51:17;;;;;;;;;;;10.10;99.70;;;;;;5028992;28;19924;-82
2023/02/19 07:53:44;;;;;;;;;;;10.00;99.70;;;;;;5011240;28;19924;-82
2023/02/19 07:56:10;;;;;;;;;;;10.00;99.90;;;;;;5010470;28;19916;-83
2023/02/19 07:58:35;;;;;;;;;;;10.00;99.50;;;;;;5006030;28;20016;-81
2023/02/19 08:01:18;;;;;;;;;;;10.10;99.30;;;;;;5024464;28;19937;-82
2023/02/19 08:03:44;;;;;;;;;;;10.10;99.30;;;;;;5015777;28;20220;-84
2023/02/19 08:06:10;;;;;;;;;;;10.10;99.10;;;;;;5018204;28;19916;-82
2023/02/19 08:08:37;;;;;;;;;;;10.10;99.20;;;;;;5030397;28;19953;-82
2023/02/19 08:13:49;;;;;;;;;;;10.20;98.40;;;;;;5031881;28;19913;-82
2023/02/19 08:16:18;;;;;;;;;;;10.20;98.50;;;;;;5012298;28;19909;-83
2023/02/19 08:18:46;;;;;;;;;;;10.20;98.50;;;;;;5026615;28;19977;-83
2023/02/19 08:21:12;;;;;;;;;;;10.20;98.70;;;;;;5020604;28;19933;-83
2023/02/19 08:23:38;;;;;;;;;;;10.20;98.60;;;;;;5020991;28;19909;-83
2023/02/19 08:26:08;;;;;;;;;;;10.20;98.30;;;;;;5022652;28;20311;-83
2023/02/19 08:28:34;;;;;;;;;;;10.30;98.40;;;;;;5006270;28;19918;-83
2023/02/19 08:31:01;;;;;;;;;;;10.40;98.40;;;;;;5016550;28;19944;-83
2023/02/19 08:33:29;;;;;;;;;;;10.40;97.90;;;;;;5020725;28;19968;-84
2023/02/19 08:35:55;;;;;;;;;;;10.40;98.00;;;;;;5006351;28;19951;-83
2023/02/19 08:38:21;;;;;;;;;;;10.50;97.80;;;;;;5003318;28;19909;-83
2023/02/19 08:40:49;;;;;;;;;;;10.60;97.40;;;;;;5027874;28;19909;-82
2023/02/19 08:43:16;;;;;;;;;;;10.60;97.10;;;;;;5030657;28;20263;-83
2023/02/19 08:45:43;;;;;;;;;;;10.60;97.30;;;;;;5026648;28;19909;-84
2023/02/19 08:48:09;;;;;;;;;;;10.70;96.90;;;;;;5021436;28;19913;-84
2023/02/19 08:50:35;;;;;;;;;;;10.70;96.40;;;;;;5015476;28;19953;-84
2023/02/19 08:53:01;;;;;;;;;;;10.80;95.80;;;;;;5008995;28;20336;-85
2023/02/19 08:55:31;;;;;;;;;;;10.90;95.40;;;;;;5009655;28;19917;-85
2023/02/19 08:58:04;;;;;;;;;;;10.90;95.50;;;;;;5027323;28;22151;-82
2023/02/19 09:00:32;;;;;;;;;;;10.80;95.70;;;;;;5051766;28;19917;-78
2023/02/19 09:03:06;;;;;;;;;;;10.80;95.60;;;;;;5035974;28;20022;-82
2023/02/19 09:05:32;;;;;;;;;;;10.70;95.70;;;;;;5050789;28;20149;-78
2023/02/19 09:07:57;;;;;;;;;;;10.70;96.00;;;;;;5040534;28;19956;-79
2023/02/19 09:10:23;;;;;;;;;;;10.60;95.70;;;;;;5038488;28;20298;-78
2023/02/19 09:12:48;;;;;;;;;;;10.50;95.70;;;;;;5103189;22;19936;-77
2023/02/19 09:15:14;;;;;;;;;;;10.50;95.80;;;;;;5062429;28;19916;-78
2023/02/19 09:17:39;;;;;;;;;;;10.50;95.50;;;;;;5059406;28;19909;-78
2023/02/19 09:20:05;;;;;;;;;;;10.40;95.40;;;;;;5058908;28;20008;-78
2023/02/19 09:22:31;;;;;;;;;;;10.30;95.30;;;;;;5058060;28;19920;-78
2023/02/19 09:24:56;;;;;;;;;;;10.20;95.10;;;;;;5062675;28;19917;-79
2023/02/19 09:27:22;;;;;;;;;;;10.20;95.30;;;;;;5057845;28;20034;-79
2023/02/19 09:29:47;;;;;;;;;;;10.30;94.10;;;;;;5054866;28;20311;-79
2023/02/19 09:32:13;;;;;;;;;;;10.40;94.00;;;;;;5040741;28;19920;-78
2023/02/19 09:34:38;;;;;;;;;;;10.40;93.60;;;;;;5039634;28;20008;-78
2023/02/19 09:37:04;;;;;;;;;;;10.40;92.70;;;;;;5037567;28;20000;-79
2023/02/19 09:39:30;;;;;;;;;;;10.40;92.30;;;;;;5050249;28;20388;-79
2023/02/19 09:42:16;;;;;;;;;;;10.40;92.00;;;;;;5048891;28;19940;-79
2023/02/19 09:44:43;;;;;;;;;;;10.40;91.40;;;;;;5062787;28;19913;-79
2023/02/19 09:47:17;;;;;;;;;;;10.40;91.30;;;;;;5050717;28;19985;-78
2023/02/19 09:49:48;;;;;;;;;;;10.30;91.40;;;;;;5051973;28;19917;-77
2023/02/19 09:52:14;;;;;;;;;;;10.20;91.20;;;;;;5054748;28;19913;-77
2023/02/19 09:54:40;;;;;;;;;;;10.10;91.60;;;;;;5060067;28;19920;-77
2023/02/19 09:57:09;;;;;;;;;;;10.00;91.70;;;;;;5061272;28;19909;-78
2023/02/19 09:59:55;;;;;;;;;;;9.90;91.90;;;;;;5054033;28;19913;-79
2023/02/19 10:02:23;;;;;;;;;;;9.90;91.20;;;;;;5084251;28;19919;-78
2023/02/19 10:04:52;;;;;;;;;;;9.90;90.80;;;;;;5070194;28;20014;-78
2023/02/19 10:07:19;;;;;;;;;;;9.90;90.60;;;;;;5056434;28;19916;-78
2023/02/19 10:09:47;;;;;;;;;;;10.00;90.40;;;;;;5050929;28;19964;-79
2023/02/19 10:12:14;;;;;;;;;;;10.00;90.40;;;;;;5051604;28;19921;-78
2023/02/19 10:14:48;;;;;;;;;;;10.10;90.10;;;;;;5051043;28;19940;-78
2023/02/19 10:17:33;;;;;;;;;;;10.20;90.20;;;;;;5044092;28;20010;-79
2023/02/19 10:19:59;;;;;;;;;;;10.50;90.20;;;;;;5038890;28;19938;-79
2023/02/19 10:25:29;;;;;;;;;;;11.10;88.00;;;;;;4204909;26;19924;-79
2023/02/19 10:31:29;;;;;;;;;;;11.70;84.00;;;;;;4983398;28;19925;-80
2023/02/19 10:34:29;;;;;;;;;;;12.00;81.40;;;;;;4995658;28;19910;-78
2023/02/19 10:39:59;;;;;;;;;;;;;;;;;;;;;
2023/02/19 10:42:44;;;;;;;;;;;12.30;76.50;;;;;;5054853;28;20502;-80
2023/02/19 10:45:18;;;;;;;;;;;12.40;76.10;;;;;;5046663;28;19959;-79
2023/02/19 10:48:25;;;;;;;;;;;12.60;75.00;;;;;;5068761;28;19931;-79
2023/02/19 10:56:46;;;;;;;;;;;12.60;74.40;;;;;;5064328;28;19999;-79
2023/02/19 10:59:51;;;;;;;;;;;12.70;71.80;;;;;;5040704;28;19979;-80
2023/02/19 11:02:17;;;;;;;;;;;12.60;71.60;;;;;;4979219;28;20459;-80
2023/02/19 11:05:01;;;;;;;;;;;12.60;71.10;;;;;;4999148;22;19923;-78
2023/02/19 11:07:27;;;;;;;;;;;12.40;70.70;;;;;;5058928;28;20056;-78
2023/02/19 11:09:53;;;;;;;;;;;12.30;71.50;;;;;;5049411;28;19921;-78
2023/02/19 11:12:36;;;;;;;;;;;12.20;72.10;;;;;;5041637;28;19909;-77
2023/02/19 11:15:17;;;;;;;;;;;12.10;72.70;;;;;;5045346;28;20439;-77
2023/02/19 11:17:42;;;;;;;;;;;12.20;72.90;;;;;;5041062;28;20401;-78
2023/02/19 11:20:13;;;;;;;;;;;12.30;73.20;;;;;;5038935;28;19920;-78
2023/02/19 11:22:40;;;;;;;;;;;12.40;71.80;;;;;;5033024;28;19913;-77
2023/02/19 11:25:06;;;;;;;;;;;12.60;70.70;;;;;;5036581;28;19921;-78
2023/02/19 11:27:31;;;;;;;;;;;12.50;71.20;;;;;;5042304;28;20031;-78
2023/02/19 11:30:16;;;;;;;;;;;12.60;70.20;;;;;;5041339;28;20371;-78
2023/02/19 11:32:41;;;;;;;;;;;12.60;70.40;;;;;;5040843;28;19919;-78
2023/02/19 11:35:16;;;;;;;;;;;12.70;69.90;;;;;;5040152;28;19952;-77
2023/02/19 11:37:55;;;;;;;;;;;12.60;70.70;;;;;;5030189;28;19966;-78
2023/02/19 11:40:25;;;;;;;;;;;12.70;69.80;;;;;;5040114;28;20267;-78
2023/02/19 11:42:57;;;;;;;;;;;12.60;70.30;;;;;;5040533;28;19913;-78
2023/02/19 11:45:38;;;;;;;;;;;12.60;70.90;;;;;;5040169;28;20344;-78
2023/02/19 11:48:09;;;;;;;;;;;12.40;71.00;;;;;;5040011;28;19928;-78
2023/02/19 11:50:41;;;;;;;;;;;12.30;73.40;;;;;;5036632;28;20092;-78
2023/02/19 11:53:22;;;;;;;;;;;11.80;78.00;;;;;;5040439;28;20203;-75
2023/02/19 11:55:48;;;;;;;;;;;11.30;81.90;;;;;;5035629;28;19924;-77
2023/02/19 11:58:25;;;;;;;;;;;10.90;85.00;;;;;;5038091;28;19993;-76
2023/02/19 12:00:57;;;;;;;;;;;10.70;84.80;;;;;;5030563;28;19913;-77
2023/02/19 12:03:29;;;;;;;;;;;10.80;84.00;;;;;;5049475;28;19996;-78
2023/02/19 12:06:33;;;;;;;;;;;10.80;82.50;;;;;;5037876;28;19917;-78
2023/02/19 12:09:09;;;;;;;;;;;11.10;81.00;;;;;;5010953;28;19918;-77
2023/02/19 12:11:49;;;;;;;;;;;11.30;78.10;;;;;;5002974;28;19914;-78
2023/02/19 12:14:14;;;;;;;;;;;11.50;76.10;;;;;;5030396;28;19917;-77
2023/02/19 12:16:49;;;;;;;;;;;11.60;74.70;;;;;;5037568;28;19909;-77
2023/02/19 12:19:33;;;;;;;;;;;11.60;75.20;;;;;;5039953;28;19971;-77
2023/02/19 12:22:02;;;;;;;;;;;11.70;74.10;;;;;;5030209;28;19913;-78
2023/02/19 12:24:30;;;;;;;;;;;12.00;73.40;;;;;;5035199;28;19914;-77
2023/02/19 12:27:08;;;;;;;;;;;12.20;72.80;;;;;;5039407;28;20406;-77
2023/02/19 12:29:52;;;;;;;;;;;12.40;71.70;;;;;;5037189;28;19968;-77
2023/02/19 12:32:17;;;;;;;;;;;12.70;70.60;;;;;;5039386;28;19984;-77
2023/02/19 12:34:49;;;;;;;;;;;12.90;68.70;;;;;;5036751;28;19940;-77
2023/02/19 12:37:33;;;;;;;;;;;12.80;68.50;;;;;;5029560;28;20300;-77
2023/02/19 12:40:12;;;;;;;;;;;12.80;68.50;;;;;;5036962;28;19936;-78
2023/02/19 12:42:50;;;;;;;;;;;12.90;69.00;;;;;;5038430;28;19944;-77
2023/02/19 12:45:21;;;;;;;;;;;12.80;69.00;;;;;;5035210;28;20734;-77
2023/02/19 12:47:55;;;;;;;;;;;12.50;70.30;;;;;;5039635;28;19920;-77
2023/02/19 12:50:24;;;;;;;;;;;12.00;72.20;;;;;;5039323;28;19917;-78
2023/02/19 12:52:52;;;;;;;;;;;11.60;74.70;;;;;;5040932;28;19913;-78
2023/02/19 12:55:20;;;;;;;;;;;11.30;76.00;;;;;;5030907;28;19914;-80
2023/02/19 12:57:46;;;;;;;;;;;11.10;76.50;;;;;;5034376;28;19914;-78
2023/02/19 13:00:26;;;;;;;;;;;10.80;76.40;;;;;;5031609;28;19928;-79
2023/02/19 13:03:07;;;;;;;;;;;10.80;76.10;;;;;;5026694;28;19963;-79
2023/02/19 13:05:38;;;;;;;;;;;10.80;74.80;;;;;;5027000;28;20000;-78
2023/02/19 13:08:06;;;;;;;;;;;10.80;74.60;;;;;;5026227;28;19913;-77
2023/02/19 13:10:38;;;;;;;;;;;10.90;73.60;;;;;;5037540;28;19921;-78
2023/02/19 13:13:06;;;;;;;;;;;11.10;73.00;;;;;;5032257;28;19913;-78
2023/02/19 13:15:35;;;;;;;;;;;11.20;72.80;;;;;;5038915;28;19924;-78
2023/02/19 13:18:02;;;;;;;;;;;11.20;71.50;;;;;;5037476;28;19904;-78
2023/02/19 13:20:30;;;;;;;;;;;11.20;71.20;;;;;;5038975;28;20359;-80
2023/02/19 13:25:46;;;;;;;;;;;11.00;72.60;;;;;;5017300;28;19924;-79
2023/02/19 13:28:20;;;;;;;;;;;11.10;73.10;;;;;;5037634;28;19971;-77
2023/02/19 13:30:48;;;;;;;;;;;11.40;72.90;;;;;;5038348;28;19928;-77
2023/02/19 13:33:21;;;;;;;;;;;11.60;72.10;;;;;;5031742;28;19940;-79
2023/02/19 13:35:56;;;;;;;;;;;11.70;71.80;;;;;;5038507;28;19917;-77
2023/02/19 13:38:22;;;;;;;;;;;11.70;71.70;;;;;;5040920;28;19964;-79
2023/02/19 13:40:55;;;;;;;;;;;11.70;72.50;;;;;;5020453;28;20405;-78
2023/02/19 13:43:29;;;;;;;;;;;11.70;72.10;;;;;;5037103;28;19992;-79
2023/02/19 13:45:59;;;;;;;;;;;11.80;72.00;;;;;;5036812;28;19913;-78
2023/02/19 13:48:24;;;;;;;;;;;11.80;71.40;;;;;;5035548;28;19921;-79
2023/02/19 13:51:10;;;;;;;;;;;11.60;71.80;;;;;;5038241;28;20299;-78
2023/02/19 13:53:44;;;;;;;;;;;11.50;72.10;;;;;;5036565;28;19920;-78
2023/02/19 13:56:28;;;;;;;;;;;11.30;73.10;;;;;;5038070;28;19917;-79
2023/02/19 13:59:12;;;;;;;;;;;11.10;73.50;;;;;;5038923;28;19909;-79
2023/02/19 14:01:50;;;;;;;;;;;11.00;74.60;;;;;;5038087;28;19913;-79
2023/02/19 14:04:18;;;;;;;;;;;10.90;75.50;;;;;;5039458;28;19913;-78
2023/02/19 14:07:02;;;;;;;;;;;11.10;75.40;;;;;;5038225;28;19939;-79
2023/02/19 14:09:40;;;;;;;;;;;11.10;75.40;;;;;;5026537;28;19944;-78
2023/02/19 14:12:09;;;;;;;;;;;11.00;75.20;;;;;;5037795;28;19952;-78
2023/02/19 14:14:38;;;;;;;;;;;11.00;75.30;;;;;;5035992;28;19948;-78
2023/02/19 14:17:16;;;;;;;;;;;11.00;75.10;;;;;;5026831;28;19924;-77
2023/02/19 14:19:47;;;;;;;;;;;11.00;74.90;;;;;;5037817;28;19917;-78
2023/02/19 14:22:31;;;;;;;;;;;11.00;75.00;;;;;;5033750;28;19913;-77
2023/02/19 14:24:57;;;;;;;;;;;10.80;75.40;;;;;;5035685;28;19970;-78
2023/02/19 14:27:22;;;;;;;;;;;10.80;76.70;;;;;;5039131;28;19921;-77
2023/02/19 14:29:48;;;;;;;;;;;10.70;76.40;;;;;;5039823;28;20267;-78
2023/02/19 14:32:17;;;;;;;;;;;10.60;77.00;;;;;;5040792;28;19921;-78
2023/02/19 14:34:43;;;;;;;;;;;10.50;77.50;;;;;;5040988;28;19909;-77
2023/02/19 14:37:15;;;;;;;;;;;10.60;77.00;;;;;;5031378;28;19920;-78
2023/02/19 14:39:42;;;;;;;;;;;10.50;77.60;;;;;;5040249;28;19917;-78
2023/02/19 14:42:14;;;;;;;;;;;10.40;77.90;;;;;;5042080;28;19986;-78
2023/02/19 14:44:51;;;;;;;;;;;10.40;78.40;;;;;;5041578;28;19952;-79
2023/02/19 14:47:18;;;;;;;;;;;10.30;78.80;;;;;;5041475;28;19913;-79
2023/02/19 14:49:49;;;;;;;;;;;10.40;78.60;;;;;;5041085;28;20373;-77
2023/02/19 14:52:23;;;;;;;;;;;10.40;79.00;;;;;;5040571;28;20298;-78
2023/02/19 14:54:54;;;;;;;;;;;10.30;79.10;;;;;;5041396;28;19914;-78
2023/02/19 14:57:26;;;;;;;;;;;10.30;79.00;;;;;;5042049;28;19921;-79
2023/02/19 14:59:53;;;;;;;;;;;10.30;78.70;;;;;;5034544;28;19959;-80
2023/02/19 15:02:20;;;;;;;;;;;10.30;78.70;;;;;;5039510;28;20032;-78
2023/02/19 15:04:45;;;;;;;;;;;10.20;79.40;;;;;;5041236;28;20439;-78
2023/02/19 15:07:18;;;;;;;;;;;10.10;79.10;;;;;;5039592;28;19965;-77
2023/02/19 15:09:47;;;;;;;;;;;10.10;79.40;;;;;;5041594;28;19920;-77
2023/02/19 15:12:35;;;;;;;;;;;10.10;79.20;;;;;;5043924;28;19936;-78
2023/02/19 15:15:03;;;;;;;;;;;10.20;79.40;;;;;;5006621;28;19913;-77
2023/02/19 15:17:30;;;;;;;;;;;10.20;79.20;;;;;;5036693;28;19917;-77
2023/02/19 15:19:57;;;;;;;;;;;10.20;78.90;;;;;;5040420;28;19917;-78
2023/02/19 15:22:24;;;;;;;;;;;10.20;79.00;;;;;;5041145;28;19921;-78
2023/02/19 15:24:50;;;;;;;;;;;10.20;78.90;;;;;;5041948;28;19910;-79